createdAt,value
2023-02-15T00:01:06.797Z,4.24
2023-02-15T00:06:10.199Z,4.09
2023-02-15T00:11:18.016Z,4.12
2023-02-15T00:16:22.627Z,4.13
2023-02-15T00:21:40.081Z,4.20
2023-02-15T00:26:45.278Z,4.43
2023-02-15T00:31:49.491Z,4.28
2023-02-15T00:36:53.711Z,3.90
2023-02-15T00:41:57.822Z,4.09
2023-02-15T00:47:03.590Z,4.20
2023-02-15T00:52:07.042Z,4.22
2023-02-15T00:57:10.970Z,4.14
2023-02-15T01:02:14.863Z,3.95
2023-02-15T01:07:21.430Z,4.26
2023-02-15T01:12:44.551Z,4.20
2023-02-15T01:17:52.541Z,4.33
2023-02-15T01:22:59.705Z,4.01
2023-02-15T01:28:03.885Z,4.00
2023-02-15T01:33:07.520Z,4.12
2023-02-15T01:38:20.737Z,4.14
2023-02-15T01:43:41.568Z,4.08
2023-02-15T01:48:52.157Z,4.25
2023-02-15T01:54:09.067Z,4.11
2023-02-15T01:59:19.736Z,3.76
2023-02-15T02:04:52.694Z,3.82
2023-02-15T02:09:56.471Z,3.87
2023-02-15T02:15:03.260Z,3.98
2023-02-15T02:20:27.157Z,4.19
2023-02-15T02:25:47.876Z,4.11
2023-02-15T02:31:39.179Z,3.58
2023-02-15T02:36:45.883Z,3.74
2023-02-15T02:42:07.418Z,3.82
2023-02-15T02:47:35.855Z,3.82
2023-02-15T02:52:47.505Z,3.84
2023-02-15T02:58:18.050Z,3.81
2023-02-15T03:03:31.860Z,3.69
2023-02-15T03:08:41.658Z,3.69
2023-02-15T03:13:46.621Z,3.64
2023-02-15T03:18:59.007Z,3.74
2023-02-15T03:24:27.815Z,3.80
2023-02-15T03:29:33.442Z,3.84
2023-02-15T03:34:40.363Z,3.84
2023-02-15T03:39:50.820Z,3.62
2023-02-15T03:45:03.533Z,3.39
2023-02-15T03:50:30.706Z,3.47
2023-02-15T03:55:35.547Z,3.28
2023-02-15T04:01:03.748Z,3.24
2023-02-15T04:06:07.502Z,3.13
2023-02-15T04:11:10.875Z,3.16
2023-02-15T04:16:14.674Z,2.91
2023-02-15T04:21:36.729Z,3.09
2023-02-15T04:26:40.135Z,3.25
2023-02-15T04:31:44.149Z,3.38
2023-02-15T04:36:47.584Z,3.19
2023-02-15T04:41:50.951Z,3.02
2023-02-15T04:46:54.488Z,2.95
2023-02-15T04:51:57.792Z,2.90
2023-02-15T04:57:01.199Z,2.76
2023-02-15T05:02:05.024Z,2.84
2023-02-15T05:07:08.531Z,2.99
2023-02-15T05:12:12.874Z,3.05
2023-02-15T05:17:17.232Z,3.08
2023-02-15T05:22:20.909Z,2.99
2023-02-15T05:27:42.755Z,3.02
2023-02-15T05:32:46.994Z,3.16
2023-02-15T05:37:50.983Z,3.04
2023-02-15T05:42:54.349Z,3.02
2023-02-15T05:47:59.319Z,2.84
2023-02-15T05:53:02.850Z,2.79
2023-02-15T05:58:06.974Z,2.97
2023-02-15T06:03:10.472Z,2.96
2023-02-15T06:08:14.000Z,2.99
2023-02-15T06:13:43.066Z,2.84
2023-02-15T06:18:46.825Z,2.80
2023-02-15T06:23:50.245Z,2.78
2023-02-15T06:28:53.679Z,2.70
2023-02-15T06:34:02.496Z,2.58
2023-02-15T06:39:06.560Z,2.71
2023-02-15T06:44:10.359Z,2.83
2023-02-15T06:49:13.985Z,2.80
2023-02-15T06:54:17.817Z,2.74
2023-02-15T06:59:21.246Z,2.67
2023-02-15T07:04:25.177Z,2.66
2023-02-15T07:09:28.968Z,2.75
2023-02-15T07:14:33.074Z,2.97
2023-02-15T07:19:36.701Z,3.03
2023-02-15T07:24:40.236Z,2.91
2023-02-15T07:29:43.799Z,2.86
2023-02-15T07:34:47.146Z,2.77
2023-02-15T07:39:51.715Z,3.03
2023-02-15T07:44:55.320Z,2.89
2023-02-15T07:50:08.682Z,3.14
2023-02-15T07:55:14.901Z,3.34
2023-02-15T08:00:31.053Z,3.63
2023-02-15T08:05:34.837Z,3.89
2023-02-15T08:10:56.694Z,4.34
2023-02-15T08:16:48.770Z,4.66
2023-02-15T08:21:58.350Z,6.30
2023-02-15T08:27:06.845Z,6.80
2023-02-15T08:32:16.168Z,6.31
2023-02-15T08:37:29.756Z,6.37
2023-02-15T08:42:36.418Z,7.12
2023-02-15T08:47:39.921Z,7.69
2023-02-15T08:52:43.656Z,8.10
2023-02-15T08:57:47.106Z,7.87
2023-02-15T09:02:51.478Z,7.62
2023-02-15T09:07:55.018Z,8.14
2023-02-15T09:13:06.070Z,8.11
2023-02-15T09:18:09.691Z,8.08
2023-02-15T09:23:25.511Z,8.83
2023-02-15T09:28:30.618Z,8.92
2023-02-15T09:33:54.389Z,8.76
2023-02-15T09:39:12.784Z,8.87
2023-02-15T09:44:33.996Z,8.95
2023-02-15T09:50:11.986Z,9.14
2023-02-15T09:55:56.778Z,8.93
2023-02-15T10:01:26.101Z,8.85
2023-02-15T10:07:14.854Z,9.27
2023-02-15T10:12:43.729Z,8.11
2023-02-15T10:18:07.568Z,7.38
2023-02-15T10:23:39.676Z,7.08
2023-02-15T10:28:47.665Z,6.83
2023-02-15T10:34:07.694Z,7.05
2023-02-15T10:39:22.260Z,6.99
2023-02-15T10:45:05.438Z,7.17
2023-02-15T10:50:37.865Z,7.22
2023-02-15T10:56:13.746Z,7.10
2023-02-15T11:01:26.332Z,6.87
2023-02-15T11:06:29.938Z,7.06
2023-02-15T11:11:42.105Z,6.82
2023-02-15T11:16:53.225Z,7.01
2023-02-15T11:22:01.775Z,6.97
2023-02-15T11:27:30.244Z,7.07
2023-02-15T11:32:40.378Z,7.08
2023-02-15T11:37:53.450Z,7.21
2023-02-15T11:43:12.206Z,7.30
2023-02-15T11:48:21.488Z,7.14
2023-02-15T11:53:28.794Z,7.41
2023-02-15T11:58:59.664Z,7.48
2023-02-15T12:04:07.869Z,7.73
2023-02-15T12:09:57.463Z,7.90
2023-02-15T12:15:03.557Z,7.92
2023-02-15T12:20:19.113Z,8.01
2023-02-15T12:25:28.255Z,7.99
2023-02-15T12:30:40.845Z,8.12
2023-02-15T12:35:45.372Z,8.11
2023-02-15T12:41:01.079Z,8.00
2023-02-15T12:46:38.481Z,7.99
2023-02-15T12:52:12.474Z,8.25
2023-02-15T12:57:36.165Z,8.18
2023-02-15T13:02:46.020Z,8.41
2023-02-15T13:07:52.367Z,8.39
2023-02-15T13:12:58.882Z,8.32
2023-02-15T13:18:03.326Z,8.43
2023-02-15T13:23:36.433Z,8.58
2023-02-15T13:29:32.110Z,8.73
2023-02-15T13:34:38.525Z,8.23
2023-02-15T13:39:48.356Z,8.32
2023-02-15T13:45:09.629Z,8.40
2023-02-15T13:50:42.985Z,8.49
2023-02-15T13:55:55.869Z,8.56
2023-02-15T14:01:36.700Z,8.43
2023-02-15T14:06:50.771Z,8.46
2023-02-15T14:12:22.832Z,8.63
2023-02-15T14:17:45.150Z,8.77
2023-02-15T14:23:02.472Z,8.60
2023-02-15T14:28:18.978Z,8.73
2023-02-15T14:33:39.502Z,8.46
2023-02-15T14:39:06.138Z,8.52
2023-02-15T14:44:17.516Z,8.46
2023-02-15T14:49:27.462Z,8.42
2023-02-15T14:54:31.618Z,8.63
2023-02-15T14:59:57.031Z,8.64
2023-02-15T15:05:10.003Z,8.40
2023-02-15T15:10:20.956Z,8.22
2023-02-15T15:15:33.002Z,8.04
2023-02-15T15:20:51.242Z,7.64
2023-02-15T15:26:28.867Z,7.63
2023-02-15T15:31:58.663Z,7.38
2023-02-15T15:37:20.512Z,7.37
2023-02-15T15:42:45.396Z,7.32
2023-02-15T15:48:07.925Z,7.16
2023-02-15T15:53:22.326Z,6.96
2023-02-15T15:58:26.575Z,6.81
2023-02-15T16:03:30.226Z,6.70
2023-02-15T16:08:39.596Z,6.56
2023-02-15T16:13:44.181Z,6.41
2023-02-15T16:18:51.689Z,6.36
2023-02-15T16:24:14.960Z,6.19
2023-02-15T16:29:29.035Z,6.05
2023-02-15T16:34:36.169Z,6.02
2023-02-15T16:39:42.940Z,5.96
2023-02-15T16:44:50.963Z,5.91
2023-02-15T16:49:57.127Z,5.78
2023-02-15T16:55:06.277Z,5.53
2023-02-15T17:00:29.029Z,5.20
2023-02-15T17:05:49.380Z,4.89
2023-02-15T17:11:06.852Z,4.68
2023-02-15T17:16:50.764Z,4.62
2023-02-15T17:21:59.520Z,4.27
2023-02-15T17:27:14.594Z,4.05
2023-02-15T17:32:44.256Z,3.79
2023-02-15T17:37:55.878Z,3.63
2023-02-15T17:43:02.440Z,3.57
2023-02-15T17:48:07.222Z,3.33
2023-02-15T17:53:36.445Z,3.13
2023-02-15T17:58:42.627Z,3.08
2023-02-15T18:04:16.216Z,3.12
2023-02-15T18:09:40.866Z,3.01
2023-02-15T18:14:45.117Z,2.85
2023-02-15T18:19:50.340Z,2.82
2023-02-15T18:24:54.146Z,2.75
2023-02-15T18:29:57.885Z,2.54
2023-02-15T18:35:02.134Z,2.29
2023-02-15T18:40:06.233Z,2.26
2023-02-15T18:45:41.862Z,2.21
2023-02-15T18:50:46.744Z,2.14
2023-02-15T18:56:01.780Z,2.08
2023-02-15T19:01:06.092Z,1.97
2023-02-15T19:06:14.124Z,1.85
2023-02-15T19:11:23.655Z,1.60
2023-02-15T19:16:35.273Z,1.55
2023-02-15T19:21:39.780Z,1.38
2023-02-15T19:26:45.881Z,1.44
2023-02-15T19:31:52.270Z,1.47
2023-02-15T19:36:56.919Z,1.42
2023-02-15T19:42:00.371Z,1.26
2023-02-15T19:47:04.892Z,1.22
2023-02-15T19:52:20.794Z,1.24
2023-02-15T19:57:25.346Z,1.20
2023-02-15T20:02:31.295Z,1.19
2023-02-15T20:07:40.751Z,1.16
2023-02-15T20:12:44.895Z,1.01
2023-02-15T20:17:49.348Z,0.96
2023-02-15T20:22:52.940Z,0.91
2023-02-15T20:28:01.752Z,0.81
2023-02-15T20:33:25.367Z,0.91
2023-02-15T20:38:38.264Z,0.89
2023-02-15T20:44:00.746Z,0.81
2023-02-15T20:49:07.350Z,0.68
2023-02-15T20:54:16.621Z,0.69
2023-02-15T20:59:24.547Z,0.52
2023-02-15T21:04:43.345Z,0.38
2023-02-15T21:09:47.053Z,0.54
2023-02-15T21:14:51.141Z,0.57
2023-02-15T21:20:25.561Z,0.44
2023-02-15T21:25:44.488Z,0.27
2023-02-15T21:31:04.931Z,0.17
2023-02-15T21:36:28.361Z,0.21
2023-02-15T21:41:50.624Z,0.27
2023-02-15T21:47:37.181Z,0.32
2023-02-15T21:52:51.137Z,0.48
2023-02-15T21:58:08.229Z,0.34
2023-02-15T22:03:12.453Z,0.19
2023-02-15T22:08:49.136Z,0.08
2023-02-15T22:13:55.158Z,0.29
2023-02-15T22:18:58.859Z,0.43
2023-02-15T22:24:02.470Z,0.38
2023-02-15T22:29:06.383Z,0.46
2023-02-15T22:34:28.121Z,0.39
2023-02-15T22:39:32.279Z,0.21
2023-02-15T22:44:44.948Z,0.10
2023-02-15T22:49:52.318Z,0.24
2023-02-15T22:55:16.413Z,0.17
2023-02-15T23:00:23.558Z,0.21
2023-02-15T23:05:38.434Z,0.16
2023-02-15T23:10:56.636Z,0.22
2023-02-15T23:20:15.799Z,0.21
2023-02-15T23:25:38.480Z,0.03
2023-02-15T23:30:40.535Z,0.01
2023-02-15T23:35:43.110Z,0.08
2023-02-15T23:41:10.394Z,-0.07
2023-02-15T23:46:28.322Z,-0.25
2023-02-15T23:51:31.282Z,-0.33
2023-02-15T23:56:33.758Z,-0.31
